Time;durP1;ratioP1;P1;durP2;ratioP2;P2;SDS_P1;SDS_P2;PMS_P1;PMS_P2;Temp;Humidity;BMP_temperature;BMP_pressure;BME280_temperature;BME280_humidity;BME280_pressure;Samples;Min_cycle;Max_cycle;Signal;HPM_P1;HPM_P2
2021/07/21 02:48:04;;;;;;;;;;;15.80;99.90;;;;;;5;36018386;39059912;-88
2021/07/21 02:51:19;;;;;;;;;;;15.80;99.90;;;;;;5;36020128;39024693;-89
2021/07/21 02:54:32;;;;;;;;;;;15.70;99.90;;;;;;5;36021613;39022882;-90
2021/07/21 02:58:24;;;;;;;;;;;15.60;99.90;;;;;;5;36017933;39021651;-89
2021/07/21 03:01:39;;;;;;;;;;;15.60;99.90;;;;;;5;36017998;39021552;-90
2021/07/21 03:04:54;;;;;;;;;;;15.60;99.90;;;;;;5;36019038;39022094;-89
2021/07/21 03:08:04;;;;;;;;;;;15.60;99.90;;;;;;5;36017051;39021631;-90
2021/07/21 03:11:19;;;;;;;;;;;15.60;99.90;;;;;;5;36014041;39019915;-89
2021/07/21 03:14:34;;;;;;;;;;;15.50;99.90;;;;;;5;36013596;39016172;-90
2021/07/21 03:17:49;;;;;;;;;;;15.50;99.90;;;;;;5;36013538;39765294;-89
2021/07/21 03:20:59;;;;;;;;;;;15.50;99.90;;;;;;5;36014039;39018010;-90
2021/07/21 03:24:12;;;;;;;;;;;15.50;99.90;;;;;;5;36018860;39021196;-90
2021/07/21 03:27:25;;;;;;;;;;;15.40;99.90;;;;;;5;36018786;39021733;-90
2021/07/21 03:30:38;;;;;;;;;;;15.40;99.90;;;;;;5;36018436;39021253;-89
2021/07/21 03:33:55;;;;;;;;;;;15.40;99.90;;;;;;5;36018875;39020767;-90
2021/07/21 03:37:08;;;;;;;;;;;15.30;99.90;;;;;;5;36018562;39022054;-90
2021/07/21 03:40:23;;;;;;;;;;;15.30;99.90;;;;;;5;36018230;39021490;-90
2021/07/21 03:43:36;;;;;;;;;;;15.30;99.90;;;;;;5;36019986;39023380;-90
2021/07/21 03:46:46;;;;;;;;;;;15.30;99.90;;;;;;5;36018174;39021080;-91
2021/07/21 03:50:01;;;;;;;;;;;15.30;99.90;;;;;;5;36018537;39772728;-90
2021/07/21 03:53:14;;;;;;;;;;;15.30;99.90;;;;;;5;36019182;39020961;-90
2021/07/21 03:56:27;;;;;;;;;;;15.30;99.90;;;;;;5;36019069;39022099;-89
2021/07/21 03:59:37;;;;;;;;;;;15.30;99.90;;;;;;5;36019591;39020739;-90
2021/07/21 04:02:52;;;;;;;;;;;15.30;99.90;;;;;;5;36025191;39021122;-90
2021/07/21 04:06:05;;;;;;;;;;;15.30;99.90;;;;;;5;36018873;39025534;-90
2021/07/21 04:09:20;;;;;;;;;;;15.30;99.90;;;;;;5;36019723;39021220;-89
2021/07/21 04:12:30;;;;;;;;;;;15.30;99.90;;;;;;5;36019734;39022229;-90
2021/07/21 04:15:42;;;;;;;;;;;15.30;99.90;;;;;;5;36017723;39021232;-89
2021/07/21 04:18:55;;;;;;;;;;;15.40;99.90;;;;;;5;36019692;39021164;-90
2021/07/21 04:22:10;;;;;;;;;;;15.40;99.90;;;;;;5;36019162;39770326;-90
2021/07/21 04:25:20;;;;;;;;;;;15.50;99.90;;;;;;5;36019078;39022876;-90
2021/07/21 04:28:33;;;;;;;;;;;15.60;99.90;;;;;;5;36017883;39021780;-89
2021/07/21 04:31:47;;;;;;;;;;;15.70;99.90;;;;;;5;36018906;39020722;-90
2021/07/21 04:35:00;;;;;;;;;;;15.70;99.90;;;;;;5;36016748;39020766;-89
2021/07/21 04:38:10;;;;;;;;;;;15.80;99.90;;;;;;5;36017759;39021970;-89
2021/07/21 04:41:23;;;;;;;;;;;15.90;99.90;;;;;;5;36017972;39021409;-89
2021/07/21 04:44:41;;;;;;;;;;;16.00;99.90;;;;;;5;36017964;39021225;-89
2021/07/21 04:47:54;;;;;;;;;;;16.10;99.90;;;;;;5;36016155;39020644;-89
2021/07/21 04:51:03;;;;;;;;;;;16.30;99.90;;;;;;5;36019135;39020769;-89
2021/07/21 04:54:18;;;;;;;;;;;16.40;99.90;;;;;;5;36018450;39770417;-89
2021/07/21 04:57:30;;;;;;;;;;;16.60;99.90;;;;;;5;36017722;39021359;-89
2021/07/21 05:00:50;;;;;;;;;;;16.70;99.90;;;;;;5;36018942;39021158;-89
2021/07/21 05:04:00;;;;;;;;;;;16.80;99.90;;;;;;5;36016905;39020139;-89
2021/07/21 05:07:14;;;;;;;;;;;16.90;99.90;;;;;;5;36020384;39021435;-87
2021/07/21 05:10:27;;;;;;;;;;;17.00;99.90;;;;;;5;36019104;39021084;-88
2021/07/21 05:13:40;;;;;;;;;;;17.00;99.90;;;;;;5;36018981;39021467;-88
2021/07/21 05:16:50;;;;;;;;;;;17.10;99.90;;;;;;5;36018538;39022621;-88
2021/07/21 05:20:04;;;;;;;;;;;17.20;99.90;;;;;;5;36019499;39021507;-88
2021/07/21 05:23:16;;;;;;;;;;;17.30;99.90;;;;;;5;36018062;39020464;-89
2021/07/21 05:26:30;;;;;;;;;;;17.50;99.90;;;;;;5;36019413;39771663;-89
2021/07/21 05:29:40;;;;;;;;;;;17.60;99.90;;;;;;5;36022076;39021401;-89
2021/07/21 05:32:53;;;;;;;;;;;17.70;99.90;;;;;;5;36018120;39021683;-89
2021/07/21 05:36:05;;;;;;;;;;;17.80;99.90;;;;;;5;36018607;39021129;-88
2021/07/21 05:39:18;;;;;;;;;;;17.90;99.90;;;;;;5;36021023;39021682;-88
2021/07/21 05:42:29;;;;;;;;;;;18.00;99.90;;;;;;5;36018815;39021747;-89
2021/07/21 05:45:42;;;;;;;;;;;18.10;99.90;;;;;;5;36018511;39019990;-89
2021/07/21 05:48:55;;;;;;;;;;;18.20;99.90;;;;;;5;36019468;39021199;-88
2021/07/21 05:52:08;;;;;;;;;;;18.30;99.90;;;;;;5;36018547;39022232;-88
2021/07/21 05:55:17;;;;;;;;;;;18.50;99.90;;;;;;5;36019498;39022309;-89
2021/07/21 05:58:32;;;;;;;;;;;18.60;99.90;;;;;;5;36017131;39771225;-89
2021/07/21 06:01:44;;;;;;;;;;;18.80;99.90;;;;;;5;36017665;39021762;-89
2021/07/21 06:04:57;;;;;;;;;;;18.90;99.90;;;;;;5;36018685;39021613;-89
2021/07/21 06:08:07;;;;;;;;;;;19.10;99.90;;;;;;5;36019235;39020755;-88
2021/07/21 06:11:20;;;;;;;;;;;19.10;99.90;;;;;;5;36018604;39020889;-88
2021/07/21 06:14:33;;;;;;;;;;;19.30;99.90;;;;;;5;36019650;39020381;-88
2021/07/21 06:17:45;;;;;;;;;;;19.30;99.90;;;;;;5;36019700;39020929;-89
2021/07/21 06:20:55;;;;;;;;;;;19.50;99.90;;;;;;5;36018545;39021943;-89
2021/07/21 06:24:08;;;;;;;;;;;19.70;99.90;;;;;;5;36018148;39021642;-89
2021/07/21 06:27:21;;;;;;;;;;;19.80;99.90;;;;;;5;36018361;39019889;-88
2021/07/21 06:30:35;;;;;;;;;;;20.00;99.90;;;;;;5;36019046;39769171;-89
2021/07/21 06:33:45;;;;;;;;;;;20.10;99.90;;;;;;5;36017788;39021045;-89
2021/07/21 06:36:58;;;;;;;;;;;20.20;99.90;;;;;;5;36018305;39020923;-89
2021/07/21 06:40:11;;;;;;;;;;;20.40;99.90;;;;;;5;36017158;39023330;-89
2021/07/21 06:43:23;;;;;;;;;;;20.50;99.90;;;;;;5;36019122;39021329;-89
2021/07/21 06:46:33;;;;;;;;;;;20.60;99.90;;;;;;5;36018091;39021367;-90
2021/07/21 06:49:47;;;;;;;;;;;20.70;99.90;;;;;;5;36018302;39021422;-90
2021/07/21 06:52:59;;;;;;;;;;;20.90;99.90;;;;;;5;36020348;39021798;-89
2021/07/21 06:56:12;;;;;;;;;;;21.00;99.90;;;;;;5;36020325;39020276;-89
2021/07/21 06:59:24;;;;;;;;;;;21.20;99.90;;;;;;5;36019149;39021639;-89
2021/07/21 07:02:38;;;;;;;;;;;21.30;99.90;;;;;;5;36018646;39771689;-89
2021/07/21 07:05:51;;;;;;;;;;;21.40;99.90;;;;;;5;36019526;39020868;-89
2021/07/21 07:09:04;;;;;;;;;;;21.60;99.90;;;;;;5;36018719;39021158;-89
2021/07/21 07:12:14;;;;;;;;;;;21.70;99.80;;;;;;5;36016498;39021362;-88
2021/07/21 07:15:26;;;;;;;;;;;21.80;99.50;;;;;;5;36019087;39020514;-88
2021/07/21 07:18:39;;;;;;;;;;;22.00;98.90;;;;;;5;36019345;39021881;-88
2021/07/21 07:21:52;;;;;;;;;;;22.10;98.00;;;;;;5;36018569;39022297;-89
2021/07/21 07:25:02;;;;;;;;;;;22.10;97.80;;;;;;5;36017686;39021045;-89
2021/07/21 07:28:14;;;;;;;;;;;22.30;98.40;;;;;;5;36018647;39020939;-89
2021/07/21 07:31:27;;;;;;;;;;;22.20;97.00;;;;;;5;36018223;39021139;-89
2021/07/21 07:34:41;;;;;;;;;;;22.40;98.30;;;;;;5;36018178;39770040;-89
2021/07/21 07:37:51;;;;;;;;;;;22.60;97.90;;;;;;5;36020808;39021627;-89
2021/07/21 07:41:04;;;;;;;;;;;22.70;98.00;;;;;;5;36018059;39022141;-88
2021/07/21 07:44:17;;;;;;;;;;;22.80;96.90;;;;;;5;36019592;39020397;-89
2021/07/21 07:47:29;;;;;;;;;;;23.00;97.10;;;;;;5;36020268;39020978;-89
2021/07/21 07:50:39;;;;;;;;;;;23.20;95.90;;;;;;5;36019402;39020749;-89
2021/07/21 07:53:53;;;;;;;;;;;23.30;96.20;;;;;;5;36018400;39019604;-89
2021/07/21 07:57:05;;;;;;;;;;;23.40;95.60;;;;;;5;36018685;39022198;-89
2021/07/21 08:00:19;;;;;;;;;;;23.50;96.30;;;;;;5;36018656;39021540;-89
2021/07/21 08:03:29;;;;;;;;;;;23.60;96.30;;;;;;5;36018889;39021316;-89
2021/07/21 08:06:43;;;;;;;;;;;23.70;96.00;;;;;;5;36017351;39770732;-88
2021/07/21 08:09:56;;;;;;;;;;;23.80;95.00;;;;;;5;36017756;39020598;-88
2021/07/21 08:13:09;;;;;;;;;;;23.90;94.10;;;;;;5;36017768;39020384;-87
2021/07/21 08:16:18;;;;;;;;;;;24.10;93.60;;;;;;5;36018676;39020493;-87
2021/07/21 08:19:31;;;;;;;;;;;24.30;94.00;;;;;;5;36020460;39020078;-87
2021/07/21 08:22:44;;;;;;;;;;;24.30;92.60;;;;;;5;36018002;39021126;-87
2021/07/21 08:25:57;;;;;;;;;;;24.50;93.00;;;;;;5;36018917;39020683;-87
2021/07/21 08:29:08;;;;;;;;;;;24.70;92.30;;;;;;5;36019290;39020529;-87
2021/07/21 08:32:20;;;;;;;;;;;24.80;92.10;;;;;;5;36018962;39020126;-89
2021/07/21 08:35:33;;;;;;;;;;;25.00;91.90;;;;;;5;36017002;39021708;-87
2021/07/21 08:38:50;;;;;;;;;;;25.20;90.70;;;;;;5;36019229;39770038;-87
2021/07/21 08:42:00;;;;;;;;;;;25.50;91.50;;;;;;5;36019402;39022515;-87
2021/07/21 08:45:14;;;;;;;;;;;25.70;90.30;;;;;;5;36020111;39020703;-87
2021/07/21 08:48:26;;;;;;;;;;;26.00;89.80;;;;;;5;36018327;39021626;-88
2021/07/21 08:51:39;;;;;;;;;;;26.50;86.70;;;;;;5;36019783;39021267;-87
2021/07/21 08:54:49;;;;;;;;;;;27.20;85.50;;;;;;5;36018483;39021811;-88
2021/07/21 08:58:02;;;;;;;;;;;27.90;79.70;;;;;;5;36019525;39021185;-87
2021/07/21 09:01:16;;;;;;;;;;;28.70;78.70;;;;;;5;36018783;39021552;-88
2021/07/21 09:04:31;;;;;;;;;;;30.00;74.80;;;;;;5;36019054;39020264;-89
2021/07/21 09:07:42;;;;;;;;;;;31.30;69.50;;;;;;5;36018621;39020758;-88
2021/07/21 09:10:56;;;;;;;;;;;32.40;65.20;;;;;;5;36018922;39771795;-89
2021/07/21 09:14:09;;;;;;;;;;;34.00;61.30;;;;;;5;36018002;39020486;-89
2021/07/21 09:17:22;;;;;;;;;;;35.20;56.40;;;;;;5;36017097;39020534;-87
2021/07/21 09:20:33;;;;;;;;;;;36.60;53.50;;;;;;5;36017620;39020865;-90
2021/07/21 09:23:47;;;;;;;;;;;37.60;49.90;;;;;;5;36018599;39020730;-90
2021/07/21 09:27:00;;;;;;;;;;;38.00;47.50;;;;;;5;36017612;39020953;-89
2021/07/21 09:30:18;;;;;;;;;;;38.50;46.70;;;;;;5;36017042;41271450;-88
2021/07/21 09:33:33;;;;;;;;;;;39.70;44.70;;;;;;5;36018143;41271014;-88
2021/07/21 09:37:00;;;;;;;;;;;39.50;43.20;;;;;;5;36017332;41271107;-90
2021/07/21 09:40:19;;;;;;;;;;;40.30;41.60;;;;;;5;36018740;41271587;-90
2021/07/21 09:43:41;;;;;;;;;;;40.60;41.50;;;;;;5;36018035;42020475;-89
2021/07/21 09:47:07;;;;;;;;;;;40.80;40.50;;;;;;5;36018831;41271791;-90
2021/07/21 09:50:26;;;;;;;;;;;41.30;41.10;;;;;;5;36018480;41272092;-88
2021/07/21 09:53:46;;;;;;;;;;;42.20;38.90;;;;;;5;36017670;41271986;-88
2021/07/21 09:57:12;;;;;;;;;;;42.20;39.00;;;;;;5;36016269;41270532;-90
2021/07/21 10:00:28;;;;;;;;;;;42.10;38.80;;;;;;5;36017764;41271144;-89
2021/07/21 10:03:45;;;;;;;;;;;43.00;37.90;;;;;;5;36019527;41272006;-88
2021/07/21 10:07:22;;;;;;;;;;;43.30;37.00;;;;;;5;36018364;41271979;-88
2021/07/21 10:10:41;;;;;;;;;;;43.30;36.70;;;;;;5;36018916;41271030;-89
2021/07/21 10:13:56;;;;;;;;;;;44.30;36.50;;;;;;5;36019825;41271826;-89
2021/07/21 10:17:15;;;;;;;;;;;44.50;36.10;;;;;;5;36018242;42022897;-89
2021/07/21 10:20:36;;;;;;;;;;;44.30;35.20;;;;;;5;36018816;41272448;-89
2021/07/21 10:23:56;;;;;;;;;;;43.90;35.70;;;;;;5;36017801;41270815;-89
2021/07/21 10:27:10;;;;;;;;;;;44.20;35.00;;;;;;5;36017535;41271111;-89
2021/07/21 10:30:30;;;;;;;;;;;43.50;35.60;;;;;;5;36018415;41271650;-89
2021/07/21 10:33:50;;;;;;;;;;;43.30;36.20;;;;;;5;36015094;41270138;-90
2021/07/21 10:37:10;;;;;;;;;;;44.30;35.20;;;;;;5;36013414;41266442;-90
2021/07/21 10:40:26;;;;;;;;;;;45.30;34.80;;;;;;5;36015047;41266827;-90
2021/07/21 10:43:53;;;;;;;;;;;45.80;33.90;;;;;;5;36015115;41267454;-88
2021/07/21 10:47:19;;;;;;;;;;;46.30;33.30;;;;;;5;36017737;41272893;-89
2021/07/21 10:54:10;;;;;;;;;;;45.80;34.00;;;;;;5;36018780;41271709;-89
2021/07/21 11:01:23;;;;;;;;;;;46.00;33.30;;;;;;5;36018574;41271091;-89
2021/07/21 11:04:43;;;;;;;;;;;46.40;33.80;;;;;;5;36018956;41270817;-90
2021/07/21 11:07:58;;;;;;;;;;;46.60;33.20;;;;;;5;36018287;41269095;-93
2021/07/21 11:11:20;;;;;;;;;;;47.10;32.90;;;;;;5;36015388;41268238;-92
2021/07/21 11:14:53;;;;;;;;;;;47.40;33.30;;;;;;5;36019620;41271171;-91
2021/07/21 11:18:16;;;;;;;;;;;47.40;32.60;;;;;;5;36019003;41272755;-92
2021/07/21 11:21:50;;;;;;;;;;;47.50;33.20;;;;;;5;36019712;41272170;-93
2021/07/21 11:25:16;;;;;;;;;;;48.10;32.80;;;;;;5;36018296;42022353;-91
2021/07/21 11:28:36;;;;;;;;;;;48.30;32.30;;;;;;5;36017965;41270997;-91
2021/07/21 11:31:55;;;;;;;;;;;47.90;32.30;;;;;;5;36017788;41271112;-91
2021/07/21 11:35:36;;;;;;;;;;;47.90;32.30;;;;;;5;36018625;41272055;-91
2021/07/21 11:38:53;;;;;;;;;;;48.20;32.10;;;;;;5;36018392;41271510;-92
2021/07/21 11:42:35;;;;;;;;;;;48.50;32.30;;;;;;5;36019005;41270202;-89
2021/07/21 11:45:54;;;;;;;;;;;48.90;31.10;;;;;;5;36017997;41272215;-92
2021/07/21 11:49:10;;;;;;;;;;;48.70;31.20;;;;;;5;36018610;41271100;-92
2021/07/21 11:52:27;;;;;;;;;;;47.80;32.20;;;;;;5;36017479;41271537;-90
2021/07/21 11:55:47;;;;;;;;;;;47.30;32.60;;;;;;5;36019937;41271725;-90
2021/07/21 11:59:08;;;;;;;;;;;47.60;33.00;;;;;;5;36019686;42021261;-90
2021/07/21 12:02:25;;;;;;;;;;;47.90;31.80;;;;;;5;36019802;41271951;-90
2021/07/21 12:05:52;;;;;;;;;;;47.90;31.60;;;;;;5;36018143;41271858;-90
2021/07/21 12:09:11;;;;;;;;;;;47.80;32.50;;;;;;5;36019436;41271852;-90
2021/07/21 12:12:31;;;;;;;;;;;48.30;31.70;;;;;;5;36019761;41271638;-91
2021/07/21 12:15:46;;;;;;;;;;;48.10;31.30;;;;;;5;36020017;41272687;-92
2021/07/21 12:19:04;;;;;;;;;;;48.10;32.10;;;;;;5;36017590;41272260;-91
2021/07/21 12:22:25;;;;;;;;;;;48.30;31.60;;;;;;5;36019279;41272454;-92
2021/07/21 12:25:44;;;;;;;;;;;47.70;32.50;;;;;;5;36017677;41270093;-92
2021/07/21 12:28:59;;;;;;;;;;;47.60;31.70;;;;;;5;36020853;41269387;-92
2021/07/21 12:32:18;;;;;;;;;;;47.00;32.90;;;;;;5;36016796;42020986;-92
2021/07/21 12:35:37;;;;;;;;;;;47.10;32.60;;;;;;5;36019323;41271747;-92
2021/07/21 12:38:57;;;;;;;;;;;47.10;32.60;;;;;;5;36017935;41270037;-92
2021/07/21 12:42:13;;;;;;;;;;;46.80;32.30;;;;;;5;36018200;41271867;-91
2021/07/21 12:45:34;;;;;;;;;;;46.10;32.10;;;;;;5;36017670;41270577;-91
2021/07/21 12:48:54;;;;;;;;;;;45.90;33.70;;;;;;5;36019279;41270573;-89
2021/07/21 12:52:15;;;;;;;;;;;45.80;34.40;;;;;;5;36017013;41270379;-90
2021/07/21 12:55:34;;;;;;;;;;;45.30;33.00;;;;;;5;36020144;41269742;-90
2021/07/21 12:59:17;;;;;;;;;;;43.90;33.90;;;;;;5;36017895;41271435;-89
2021/07/21 13:02:37;;;;;;;;;;;43.20;34.10;;;;;;5;36018132;41272262;-91
2021/07/21 13:06:01;;;;;;;;;;;42.80;35.40;;;;;;5;36017040;42020133;-91
2021/07/21 13:09:16;;;;;;;;;;;43.30;34.60;;;;;;5;36016387;41270520;-89
2021/07/21 13:12:34;;;;;;;;;;;43.30;35.30;;;;;;5;36016688;41271633;-90
2021/07/21 13:16:00;;;;;;;;;;;43.40;34.60;;;;;;5;36019203;41270420;-90
2021/07/21 13:19:28;;;;;;;;;;;42.90;34.90;;;;;;5;36020065;41271651;-91
2021/07/21 13:22:42;;;;;;;;;;;43.10;34.50;;;;;;5;36020022;41271965;-91
2021/07/21 13:26:07;;;;;;;;;;;42.80;34.30;;;;;;5;36017073;41270276;-91
2021/07/21 13:29:27;;;;;;;;;;;42.20;35.10;;;;;;5;36018959;41270030;-91
2021/07/21 13:32:47;;;;;;;;;;;42.00;35.30;;;;;;5;36018215;41269907;-90
2021/07/21 13:36:09;;;;;;;;;;;41.80;35.50;;;;;;5;36020625;41271370;-90
2021/07/21 13:39:37;;;;;;;;;;;41.80;34.00;;;;;;5;36017928;42022143;-90
2021/07/21 13:43:07;;;;;;;;;;;41.70;34.00;;;;;;5;36018460;41271758;-91
2021/07/21 13:46:31;;;;;;;;;;;41.80;34.80;;;;;;5;36019728;41270991;-92
2021/07/21 13:49:45;;;;;;;;;;;41.20;34.40;;;;;;5;36019107;41270545;-89
2021/07/21 13:53:04;;;;;;;;;;;40.60;34.90;;;;;;5;36018543;41271394;-89
2021/07/21 13:56:24;;;;;;;;;;;40.70;35.20;;;;;;5;36017565;41271443;-89
2021/07/21 13:59:44;;;;;;;;;;;40.10;36.40;;;;;;5;36016634;41270952;-89
2021/07/21 14:02:58;;;;;;;;;;;40.00;37.10;;;;;;5;36017544;41272009;-90
2021/07/21 14:06:15;;;;;;;;;;;39.30;36.40;;;;;;5;36019578;41272581;-89
2021/07/21 14:09:35;;;;;;;;;;;39.00;37.00;;;;;;5;36018615;41271573;-89
2021/07/21 14:12:56;;;;;;;;;;;38.70;36.90;;;;;;5;36019851;42020941;-89
2021/07/21 14:16:10;;;;;;;;;;;38.40;37.70;;;;;;5;36020521;41272627;-89
2021/07/21 14:19:30;;;;;;;;;;;38.50;38.70;;;;;;5;36019208;41272167;-89
2021/07/21 14:22:49;;;;;;;;;;;38.40;37.40;;;;;;5;36019291;41270741;-89
2021/07/21 14:26:09;;;;;;;;;;;38.30;36.80;;;;;;5;36018808;41271946;-89
2021/07/21 14:29:24;;;;;;;;;;;37.90;37.00;;;;;;5;36020168;41272232;-89
2021/07/21 14:32:41;;;;;;;;;;;37.70;36.10;;;;;;5;36017645;41271312;-90
2021/07/21 14:36:01;;;;;;;;;;;37.40;37.90;;;;;;5;36017239;41270432;-87
2021/07/21 14:39:21;;;;;;;;;;;37.10;37.60;;;;;;5;36018222;41271240;-89
2021/07/21 14:42:36;;;;;;;;;;;36.50;37.70;;;;;;5;36017166;41271147;-89
2021/07/21 14:45:54;;;;;;;;;;;36.10;38.70;;;;;;5;36018714;42022307;-89
2021/07/21 14:49:15;;;;;;;;;;;35.70;38.70;;;;;;5;36018770;41272043;-89
2021/07/21 14:52:34;;;;;;;;;;;35.70;38.40;;;;;;5;36019058;41272153;-89
2021/07/21 14:55:49;;;;;;;;;;;35.30;35.30;;;;;;5;36019712;41270652;-89
2021/07/21 14:59:06;;;;;;;;;;;35.00;34.30;;;;;;5;36019031;41271438;-88
2021/07/21 15:02:25;;;;;;;;;;;34.60;34.90;;;;;;5;36019068;41270769;-89
2021/07/21 15:05:45;;;;;;;;;;;34.40;36.10;;;;;;5;36017795;41275243;-89
2021/07/21 15:08:59;;;;;;;;;;;34.40;37.20;;;;;;5;36019113;41272962;-89
2021/07/21 15:12:16;;;;;;;;;;;34.30;36.80;;;;;;5;36017728;41271571;-88
2021/07/21 15:15:36;;;;;;;;;;;34.00;37.40;;;;;;5;36017929;41271231;-89
2021/07/21 15:18:57;;;;;;;;;;;33.90;36.70;;;;;;5;36017191;42020836;-89
2021/07/21 15:22:12;;;;;;;;;;;33.80;36.70;;;;;;5;36019190;41271641;-88
2021/07/21 15:25:29;;;;;;;;;;;33.40;35.70;;;;;;5;36018658;41272670;-88
2021/07/21 15:28:49;;;;;;;;;;;33.00;35.80;;;;;;5;36018841;41271283;-88
2021/07/21 15:32:12;;;;;;;;;;;32.90;38.20;;;;;;5;36018626;41271210;-88
2021/07/21 15:35:26;;;;;;;;;;;32.80;35.60;;;;;;5;36019918;41271997;-88
2021/07/21 15:38:43;;;;;;;;;;;32.70;36.60;;;;;;5;36019251;41271908;-89
2021/07/21 15:42:04;;;;;;;;;;;32.60;36.30;;;;;;5;36017735;41271317;-89
2021/07/21 15:45:23;;;;;;;;;;;32.60;36.10;;;;;;5;36013707;41267440;-89
2021/07/21 15:48:37;;;;;;;;;;;32.20;37.70;;;;;;5;36013639;41267219;-89
2021/07/21 15:51:56;;;;;;;;;;;32.10;39.80;;;;;;5;36018671;42023070;-89
2021/07/21 15:55:15;;;;;;;;;;;32.10;38.00;;;;;;5;36018011;41270385;-89
2021/07/21 15:58:35;;;;;;;;;;;32.00;40.10;;;;;;5;36018281;41271215;-89
2021/07/21 16:01:49;;;;;;;;;;;32.00;38.80;;;;;;5;36018006;41271088;-89
2021/07/21 16:05:13;;;;;;;;;;;31.80;37.00;;;;;;5;36018718;41271540;-88
2021/07/21 16:08:32;;;;;;;;;;;31.70;39.50;;;;;;5;36019400;41270531;-88
2021/07/21 16:11:51;;;;;;;;;;;31.50;40.20;;;;;;5;36016988;41270799;-88
2021/07/21 16:15:15;;;;;;;;;;;31.30;40.10;;;;;;5;36017455;41271403;-89
2021/07/21 16:18:33;;;;;;;;;;;31.10;40.90;;;;;;5;36017949;41271799;-89
2021/07/21 16:21:53;;;;;;;;;;;30.80;45.40;;;;;;5;36017621;41271143;-88
2021/07/21 16:25:19;;;;;;;;;;;30.70;42.70;;;;;;5;36019208;42021732;-88
2021/07/21 16:28:34;;;;;;;;;;;30.60;43.00;;;;;;5;36017209;41270745;-88
2021/07/21 16:31:52;;;;;;;;;;;30.60;43.40;;;;;;5;36016926;41271592;-88
2021/07/21 16:35:12;;;;;;;;;;;30.50;42.80;;;;;;5;36015698;41270359;-89
2021/07/21 16:38:32;;;;;;;;;;;30.30;42.80;;;;;;5;36016633;41269197;-88
2021/07/21 16:41:46;;;;;;;;;;;30.10;44.10;;;;;;5;36017453;41269848;-89
2021/07/21 16:45:05;;;;;;;;;;;30.10;43.90;;;;;;5;36017153;41271295;-88
2021/07/21 16:48:24;;;;;;;;;;;30.10;45.30;;;;;;5;36016811;41270074;-89
2021/07/21 16:51:44;;;;;;;;;;;30.00;44.50;;;;;;5;36016900;41270378;-89
2021/07/21 16:54:58;;;;;;;;;;;30.00;45.50;;;;;;5;36017052;41271581;-88
2021/07/21 16:58:17;;;;;;;;;;;29.90;45.00;;;;;;5;36016307;42019506;-88
2021/07/21 17:01:36;;;;;;;;;;;29.70;44.90;;;;;;5;36017218;41268970;-89
2021/07/21 17:04:55;;;;;;;;;;;29.50;46.20;;;;;;5;36015597;41269297;-89
2021/07/21 17:08:10;;;;;;;;;;;29.40;45.90;;;;;;5;36017131;41270524;-88
2021/07/21 17:11:27;;;;;;;;;;;29.30;46.60;;;;;;5;36016107;41269847;-89
2021/07/21 17:14:46;;;;;;;;;;;29.20;47.70;;;;;;5;36016934;41271512;-88
2021/07/21 17:18:06;;;;;;;;;;;29.00;47.40;;;;;;5;36018880;41270054;-89
2021/07/21 17:21:20;;;;;;;;;;;28.90;47.80;;;;;;5;36017749;41270456;-89
2021/07/21 17:24:37;;;;;;;;;;;28.90;48.80;;;;;;5;36018215;41270739;-88
2021/07/21 17:27:56;;;;;;;;;;;28.70;48.20;;;;;;5;36017274;41270624;-89
2021/07/21 17:31:17;;;;;;;;;;;28.60;49.80;;;;;;5;36018253;42020575;-89
2021/07/21 17:34:32;;;;;;;;;;;28.50;49.60;;;;;;5;36018668;41269263;-89
2021/07/21 17:37:49;;;;;;;;;;;28.40;50.60;;;;;;5;36019141;41272267;-89
2021/07/21 17:41:08;;;;;;;;;;;28.20;50.30;;;;;;5;36018107;41270363;-87
2021/07/21 17:44:28;;;;;;;;;;;28.10;50.60;;;;;;5;36017857;41269714;-88
2021/07/21 17:47:42;;;;;;;;;;;27.90;50.70;;;;;;5;36019759;41271672;-86
2021/07/21 17:50:59;;;;;;;;;;;27.80;50.30;;;;;;5;36016087;41272508;-88
2021/07/21 17:54:19;;;;;;;;;;;27.70;51.50;;;;;;5;36019190;41270089;-88
2021/07/21 17:57:39;;;;;;;;;;;27.60;52.80;;;;;;5;36020620;41270556;-88
2021/07/21 18:00:53;;;;;;;;;;;27.40;53.30;;;;;;5;36019141;41271627;-89
2021/07/21 18:04:12;;;;;;;;;;;27.30;53.90;;;;;;5;36018462;42021998;-89
2021/07/21 18:07:31;;;;;;;;;;;27.10;54.90;;;;;;5;36019040;41272071;-88
2021/07/21 18:10:50;;;;;;;;;;;26.90;55.40;;;;;;5;36017990;41271826;-90
2021/07/21 18:14:04;;;;;;;;;;;26.70;56.40;;;;;;5;36013937;41266280;-90
2021/07/21 18:17:22;;;;;;;;;;;26.60;57.00;;;;;;5;36014128;41267112;-90
2021/07/21 18:20:41;;;;;;;;;;;26.40;56.40;;;;;;5;36013503;41267168;-89
2021/07/21 18:24:01;;;;;;;;;;;26.20;56.30;;;;;;5;36017557;41270427;-87
2021/07/21 18:27:15;;;;;;;;;;;26.00;56.10;;;;;;5;36018343;41271656;-89
2021/07/21 18:30:32;;;;;;;;;;;25.80;56.40;;;;;;5;36018628;41270359;-89
2021/07/21 18:33:52;;;;;;;;;;;25.60;56.90;;;;;;5;36017302;41270840;-86
2021/07/21 18:37:13;;;;;;;;;;;25.50;57.60;;;;;;5;36017901;42020508;-88
2021/07/21 18:40:27;;;;;;;;;;;25.40;58.20;;;;;;5;36019970;41272258;-90
2021/07/21 18:43:44;;;;;;;;;;;25.30;58.50;;;;;;5;36017507;41272430;-89
2021/07/21 18:47:05;;;;;;;;;;;25.20;59.20;;;;;;5;36018739;41272160;-88
2021/07/21 18:50:25;;;;;;;;;;;25.00;59.80;;;;;;5;36018327;41270776;-88
2021/07/21 18:53:39;;;;;;;;;;;24.80;60.30;;;;;;5;36018713;41271519;-88
2021/07/21 18:56:56;;;;;;;;;;;24.70;60.80;;;;;;5;36016589;41271103;-89
2021/07/21 19:00:15;;;;;;;;;;;24.60;61.50;;;;;;5;36017606;41271098;-88
2021/07/21 19:03:35;;;;;;;;;;;24.50;62.70;;;;;;5;36019889;41270754;-88
2021/07/21 19:06:49;;;;;;;;;;;24.40;64.00;;;;;;5;36018422;41271997;-88
2021/07/21 19:10:09;;;;;;;;;;;24.20;66.20;;;;;;5;36017933;42022047;-88
2021/07/21 19:13:28;;;;;;;;;;;24.20;67.50;;;;;;5;36017187;41271877;-90
2021/07/21 19:16:47;;;;;;;;;;;24.10;66.90;;;;;;5;36019615;41270972;-87
2021/07/21 19:20:02;;;;;;;;;;;23.90;67.70;;;;;;5;36019837;41270108;-89
2021/07/21 19:23:20;;;;;;;;;;;23.80;67.90;;;;;;5;36018421;41271478;-89
2021/07/21 19:26:39;;;;;;;;;;;23.70;68.30;;;;;;5;36018112;41270861;-87
2021/07/21 19:29:59;;;;;;;;;;;23.60;70.00;;;;;;5;36017425;41271163;-89
2021/07/21 19:33:13;;;;;;;;;;;23.40;70.20;;;;;;5;36019321;41272375;-88
2021/07/21 19:36:30;;;;;;;;;;;23.30;70.80;;;;;;5;36019252;41270822;-88
2021/07/21 19:39:49;;;;;;;;;;;23.20;70.90;;;;;;5;36019859;41271577;-89
2021/07/21 19:43:10;;;;;;;;;;;23.10;71.10;;;;;;5;36017625;42021774;-89
2021/07/21 19:46:24;;;;;;;;;;;22.90;72.40;;;;;;5;36016791;41270780;-88
2021/07/21 19:49:46;;;;;;;;;;;22.80;73.10;;;;;;5;36018546;41270620;-88
2021/07/21 19:53:05;;;;;;;;;;;22.70;73.70;;;;;;5;36018760;41270713;-89
2021/07/21 19:56:24;;;;;;;;;;;22.60;74.70;;;;;;5;36017801;41271448;-88
2021/07/21 19:59:39;;;;;;;;;;;22.50;75.10;;;;;;5;36019283;41271319;-89
2021/07/21 20:02:56;;;;;;;;;;;22.40;76.80;;;;;;5;36018815;41271233;-89
2021/07/21 20:06:16;;;;;;;;;;;22.30;77.60;;;;;;5;36017608;41271329;-88
2021/07/21 20:09:36;;;;;;;;;;;22.20;77.60;;;;;;5;36019688;41272816;-89
2021/07/21 20:12:50;;;;;;;;;;;22.20;78.80;;;;;;5;36018433;41270642;-89
2021/07/21 20:16:09;;;;;;;;;;;22.10;79.00;;;;;;5;36018785;42021280;-88
2021/07/21 20:19:33;;;;;;;;;;;22.10;79.30;;;;;;5;36017567;41271267;-88
2021/07/21 20:22:52;;;;;;;;;;;22.00;80.80;;;;;;5;36019393;41270633;-88
2021/07/21 20:26:08;;;;;;;;;;;21.90;81.40;;;;;;5;36017903;41269736;-89
2021/07/21 20:29:25;;;;;;;;;;;21.80;82.70;;;;;;5;36015179;41269375;-89
2021/07/21 20:32:44;;;;;;;;;;;21.70;82.90;;;;;;5;36016603;41269658;-89
2021/07/21 20:36:04;;;;;;;;;;;21.70;83.80;;;;;;5;36016728;41270792;-89
2021/07/21 20:39:18;;;;;;;;;;;21.60;84.70;;;;;;5;36017754;41271596;-87
2021/07/21 20:42:36;;;;;;;;;;;21.50;85.10;;;;;;5;36017080;41272021;-89
2021/07/21 20:45:55;;;;;;;;;;;21.50;85.20;;;;;;5;36017988;41270861;-88
2021/07/21 20:49:16;;;;;;;;;;;21.40;86.00;;;;;;5;36019643;42020404;-89
2021/07/21 20:52:30;;;;;;;;;;;21.30;87.00;;;;;;5;36018797;41271534;-88
2021/07/21 20:55:48;;;;;;;;;;;21.20;87.10;;;;;;5;36018038;41270929;-88
2021/07/21 20:59:07;;;;;;;;;;;21.20;87.70;;;;;;5;36018835;41271537;-88
2021/07/21 21:02:26;;;;;;;;;;;21.10;89.90;;;;;;5;36018256;41271356;-88
2021/07/21 21:05:41;;;;;;;;;;;21.00;90.40;;;;;;5;36019900;41272253;-88
2021/07/21 21:08:58;;;;;;;;;;;20.80;90.60;;;;;;5;36018847;41271931;-91
2021/07/21 21:12:18;;;;;;;;;;;20.80;91.20;;;;;;5;36020262;41274142;-90